Time;durP1;ratioP1;P1;durP2;ratioP2;P2;SDS_P1;SDS_P2;PMS_P1;PMS_P2;Temp;Humidity;BMP_temperature;BMP_pressure;BME280_temperature;BME280_humidity;BME280_pressure;Samples;Min_cycle;Max_cycle;Signal;HPM_P1;HPM_P2
2022/07/25 00:02:17;;;;;;;3.80;1.73;;;;;;;;;;5043011;28;20024;-74
2022/07/25 00:04:43;;;;;;;1.85;1.60;;;;;;;;;;5026130;28;20092;-72
2022/07/25 00:07:09;;;;;;;2.95;1.60;;;;;;;;;;5049616;28;20504;-73
2022/07/25 00:09:35;;;;;;;2.22;1.70;;;;;;;;;;5051761;28;20067;-73
2022/07/25 00:12:01;;;;;;;2.08;1.83;;;;;;;;;;5052480;28;20063;-73
2022/07/25 00:14:27;;;;;;;4.65;1.90;;;;;;;;;;5048377;28;20041;-72
2022/07/25 00:16:53;;;;;;;3.28;1.88;;;;;;;;;;5040758;28;20090;-73
2022/07/25 00:19:19;;;;;;;3.13;1.83;;;;;;;;;;5050000;28;20480;-77
2022/07/25 00:21:45;;;;;;;4.40;1.92;;;;;;;;;;5041778;28;20064;-72
2022/07/25 00:24:13;;;;;;;6.07;1.60;;;;;;;;;;5051911;28;20033;-72
2022/07/25 00:26:39;;;;;;;4.57;1.63;;;;;;;;;;5057760;28;20039;-71
2022/07/25 00:29:04;;;;;;;2.70;1.83;;;;;;;;;;5032733;28;20063;-72
2022/07/25 00:31:30;;;;;;;2.47;1.70;;;;;;;;;;5025054;28;20060;-73
2022/07/25 00:33:57;;;;;;;2.55;1.75;;;;;;;;;;5044945;28;20112;-71
2022/07/25 00:36:23;;;;;;;4.03;1.98;;;;;;;;;;5024979;28;20116;-76
2022/07/25 00:38:48;;;;;;;2.95;1.90;;;;;;;;;;5030968;28;20121;-75
2022/07/25 00:41:14;;;;;;;3.05;2.00;;;;;;;;;;5030210;28;20116;-71
2022/07/25 00:43:44;;;;;;;3.58;2.10;;;;;;;;;;5030655;28;20045;-71
2022/07/25 00:46:13;;;;;;;2.20;2.00;;;;;;;;;;5022294;28;20651;-74
2022/07/25 00:48:39;;;;;;;2.55;2.03;;;;;;;;;;5020473;28;20080;-71
2022/07/25 00:51:06;;;;;;;2.20;1.98;;;;;;;;;;5018454;28;20025;-73
2022/07/25 00:53:32;;;;;;;2.28;2.08;;;;;;;;;;5030180;28;20037;-73
2022/07/25 00:55:58;;;;;;;4.05;1.85;;;;;;;;;;5023933;28;20041;-76
2022/07/25 00:58:23;;;;;;;5.20;1.80;;;23.70;99.90;;;;;;5018091;28;20046;-71
2022/07/25 01:00:49;;;;;;;4.28;1.95;;;;;;;;;;5027947;28;20037;-71
2022/07/25 01:03:16;;;;;;;3.15;2.10;;;;;;;;;;4996468;28;20037;-71
2022/07/25 01:05:42;;;;;;;5.53;2.40;;;;;;;;;;5018266;28;20034;-71
2022/07/25 01:08:08;;;;;;;4.18;2.13;;;;;;;;;;5028954;28;20041;-73
2022/07/25 01:10:35;;;;;;;5.75;2.33;;;;;;;;;;5025915;28;20048;-71
2022/07/25 01:13:01;;;;;;;3.17;2.45;;;23.30;99.90;;;;;;5030582;28;20184;-72
2022/07/25 01:15:27;;;;;;;3.50;2.70;;;;;;;;;;5031542;28;20580;-71
2022/07/25 01:17:53;;;;;;;3.65;2.33;;;;;;;;;;5028015;28;20040;-71
2022/07/25 01:20:21;;;;;;;3.05;2.50;;;;;;;;;;5026531;28;20044;-73
2022/07/25 01:22:47;;;;;;;3.50;2.40;;;;;;;;;;5027286;28;20037;-71
2022/07/25 01:25:14;;;;;;;4.38;2.15;;;;;;;;;;5030376;28;20579;-71
2022/07/25 01:27:41;;;;;;;5.50;2.17;;;23.10;99.90;;;;;;5030164;28;20025;-71
2022/07/25 01:30:08;;;;;;;2.50;2.30;;;;;;;;;;5010931;28;20029;-72
2022/07/25 01:32:36;;;;;;;3.13;1.77;;;;;;;;;;5023097;28;20017;-71
2022/07/25 01:35:04;;;;;;;3.75;2.03;;;;;;;;;;5046969;28;20407;-71
2022/07/25 01:37:30;;;;;;;3.92;2.30;;;;;;;;;;5043842;28;20047;-74
2022/07/25 01:39:56;;;;;;;3.58;2.30;;;;;;;;;;5046066;28;20503;-71
2022/07/25 01:42:22;;;;;;;6.40;2.67;;;;;;;;;;5048647;28;20079;-71
2022/07/25 01:44:48;;;;;;;5.13;2.38;;;23.00;99.90;;;;;;5030558;28;20061;-71
2022/07/25 01:47:16;;;;;;;4.30;3.03;;;;;;;;;;5042309;28;20061;-71
2022/07/25 01:49:42;;;;;;;4.13;2.60;;;;;;;;;;5049992;28;20033;-71
2022/07/25 01:52:08;;;;;;;6.20;2.22;;;;;;;;;;5049529;28;20033;-74
2022/07/25 01:54:34;;;;;;;2.60;2.20;;;;;;;;;;5044558;28;20037;-72
2022/07/25 01:57:00;;;;;;;6.13;2.10;;;;;;;;;;5043903;28;20032;-71
2022/07/25 01:59:26;;;;;;;2.72;2.22;;;;;;;;;;5051244;28;20468;-71
2022/07/25 02:01:52;;;;;;;4.05;2.70;;;;;;;;;;5028399;28;20393;-71
2022/07/25 02:04:18;;;;;;;2.33;2.13;;;;;;;;;;5047932;28;20043;-71
2022/07/25 02:06:44;;;;;;;2.72;1.85;;;;;;;;;;5031471;28;20029;-74
2022/07/25 02:09:10;;;;;;;2.72;2.10;;;;;;;;;;5049784;28;20385;-71
2022/07/25 02:11:36;;;;;;;2.88;2.08;;;;;;;;;;5048256;28;20025;-73
2022/07/25 02:14:02;;;;;;;2.20;2.00;;;;;;;;;;5046103;28;20196;-75
2022/07/25 02:16:28;;;;;;;5.32;2.55;;;;;;;;;;5045638;28;20127;-72
2022/07/25 02:18:54;;;;;;;2.42;2.10;;;;;;;;;;5049585;28;20052;-72
2022/07/25 02:21:20;;;;;;;2.92;1.92;;;;;;;;;;5049929;28;20106;-71
2022/07/25 02:23:47;;;;;;;3.45;2.28;;;;;;;;;;5042127;28;20025;-72
2022/07/25 02:26:13;;;;;;;6.38;2.40;;;;;;;;;;5018583;28;20026;-72
2022/07/25 02:28:40;;;;;;;3.40;2.40;;;;;;;;;;5037684;28;20488;-72
2022/07/25 02:31:06;;;;;;;3.20;1.83;;;;;;;;;;5038223;28;20033;-72
2022/07/25 02:33:32;;;;;;;2.17;1.98;;;;;;;;;;5037839;28;20050;-77
2022/07/25 02:35:58;;;;;;;6.30;2.15;;;;;;;;;;5024039;28;20450;-72
2022/07/25 02:38:23;;;;;;;3.47;2.30;;;22.40;99.90;;;;;;5006683;28;20026;-72
2022/07/25 02:40:51;;;;;;;4.13;1.90;;;;;;;;;;5034823;28;20083;-72
2022/07/25 02:43:17;;;;;;;3.70;2.22;;;;;;;;;;5014199;28;20116;-71
2022/07/25 02:45:43;;;;;;;2.88;1.98;;;;;;;;;;5032957;28;20075;-71
2022/07/25 02:48:09;;;;;;;4.22;2.28;;;;;;;;;;5032476;28;20037;-73
2022/07/25 02:50:36;;;;;;;2.47;2.20;;;;;;;;;;5026153;28;20061;-72
2022/07/25 02:53:02;;;;;;;3.17;2.42;;;22.20;99.90;;;;;;5032264;28;20030;-72
2022/07/25 02:55:28;;;;;;;5.82;2.40;;;;;;;;;;5022798;28;20038;-72
2022/07/25 02:57:54;;;;;;;3.78;2.90;;;;;;;;;;5031178;28;20442;-74
2022/07/25 03:00:20;;;;;;;3.35;3.05;;;;;;;;;;5033382;28;20068;-75
2022/07/25 03:02:46;;;;;;;3.63;2.83;;;;;;;;;;5030488;28;20030;-72
2022/07/25 03:05:14;;;;;;;2.72;2.20;;;22.30;99.90;;;;;;5030122;28;20039;-72
2022/07/25 03:07:40;;;;;;;2.50;2.30;;;;;;;;;;5030111;28;20018;-72
2022/07/25 03:10:08;;;;;;;3.80;2.97;;;;;;;;;;5032204;28;20029;-72
2022/07/25 03:12:34;;;;;;;5.18;2.42;;;22.20;99.90;;;;;;5030922;28;20388;-72
2022/07/25 03:15:00;;;;;;;2.78;2.58;;;;;;;;;;5031237;28;20038;-78
2022/07/25 03:17:27;;;;;;;3.03;2.53;;;;;;;;;;5032657;28;20041;-72
2022/07/25 03:19:53;;;;;;;2.75;2.55;;;;;;;;;;5014456;28;20053;-72
2022/07/25 03:22:19;;;;;;;2.75;2.55;;;;;;;;;;5032789;28;20018;-74
2022/07/25 03:24:45;;;;;;;3.22;2.55;;;;;;;;;;5030039;28;20124;-72
2022/07/25 03:27:11;;;;;;;4.55;2.67;;;;;;;;;;5028634;28;20117;-72
2022/07/25 03:29:38;;;;;;;4.75;3.05;;;;;;;;;;5024084;28;20547;-72
2022/07/25 03:32:04;;;;;;;6.43;3.10;;;21.90;99.90;;;;;;5033200;28;20072;-72
2022/07/25 03:34:29;;;;;;;4.45;2.92;;;21.70;99.90;;;;;;5024390;28;20106;-72
2022/07/25 03:36:55;;;;;;;5.10;3.05;;;;;;;;;;5047392;28;20037;-72
2022/07/25 03:39:23;;;;;;;6.53;3.05;;;;;;;;;;5046470;28;20032;-76
2022/07/25 03:41:49;;;;;;;3.05;2.75;;;;;;;;;;5050762;28;20112;-72
2022/07/25 03:44:15;;;;;;;5.35;3.08;;;;;;;;;;5051451;28;20044;-74
2022/07/25 03:46:41;;;;;;;3.35;3.05;;;21.80;99.90;;;;;;5041125;28;20103;-72
2022/07/25 03:49:07;;;;;;;6.30;3.25;;;;;;;;;;5014542;28;20108;-74
2022/07/25 03:51:33;;;;;;;4.30;3.13;;;;;;;;;;5017539;28;20044;-71
2022/07/25 03:54:02;;;;;;;6.65;3.53;;;;;;;;;;5030922;28;20065;-72
2022/07/25 03:56:48;;;;;;;6.15;4.05;;;;;;;;;;5045941;28;20052;-72
2022/07/25 03:59:15;;;;;;;4.10;3.67;;;;;;;;;;5049600;28;20111;-71
2022/07/25 04:01:42;;;;;;;4.18;3.25;;;;;;;;;;5039484;28;20034;-71
2022/07/25 04:04:11;;;;;;;4.05;3.65;;;;;;;;;;5044267;28;20547;-73
2022/07/25 04:06:38;;;;;;;4.97;3.88;;;;;;;;;;5048627;28;20476;-73
2022/07/25 04:09:04;;;;;;;7.47;3.88;;;;;;;;;;5050177;28;20033;-72
2022/07/25 04:11:30;;;;;;;5.97;4.18;;;;;;;;;;5046584;28;20044;-73
2022/07/25 04:13:57;;;;;;;4.97;4.10;;;;;;;;;;5047234;28;20053;-72
2022/07/25 04:16:23;;;;;;;7.60;4.13;;;21.60;99.90;;;;;;5044729;28;20033;-72
2022/07/25 04:18:52;;;;;;;6.70;4.22;;;;;;;;;;5049142;28;20037;-72
2022/07/25 04:21:19;;;;;;;7.18;4.55;;;;;;;;;;5032630;28;20469;-71
2022/07/25 04:23:45;;;;;;;5.75;4.20;;;;;;;;;;5053058;28;20094;-71
2022/07/25 04:26:11;;;;;;;10.15;4.68;;;;;;;;;;5051680;28;20385;-73
2022/07/25 04:28:37;;;;;;;6.03;4.43;;;;;;;;;;5049201;28;20028;-73
2022/07/25 04:31:02;;;;;;;5.30;4.72;;;;;;;;;;5045591;28;20039;-78
2022/07/25 04:33:28;;;;;;;8.65;4.65;;;;;;;;;;5051369;28;20361;-73
2022/07/25 04:35:54;;;;;;;13.38;5.97;;;;;;;;;;5048203;28;20037;-73
2022/07/25 04:38:20;;;;;;;6.40;4.88;;;;;;;;;;5045523;28;20148;-73
2022/07/25 04:40:47;;;;;;;5.35;4.60;;;;;;;;;;5048548;28;20028;-73
2022/07/25 04:43:13;;;;;;;8.02;4.60;;;;;;;;;;5047638;28;20078;-74
2022/07/25 04:45:39;;;;;;;7.53;4.82;;;;;;;;;;5049319;28;20021;-75
2022/07/25 04:48:05;;;;;;;7.32;4.35;;;22.10;99.90;;;;;;5051253;28;20045;-72
2022/07/25 04:50:31;;;;;;;5.70;5.05;;;;;;;;;;5032614;28;20048;-79
2022/07/25 04:52:57;;;;;;;6.82;4.43;;;;;;;;;;5048930;28;20033;-72
2022/07/25 04:55:23;;;;;;;8.38;4.95;;;;;;;;;;5048877;28;20388;-73
2022/07/25 04:57:49;;;;;;;6.22;5.00;;;;;;;;;;5046828;28;20429;-73
2022/07/25 05:00:15;;;;;;;6.13;5.30;;;;;;;;;;5050551;28;20200;-72
2022/07/25 05:02:41;;;;;;;8.65;4.53;;;22.70;99.90;;;;;;5030435;28;20087;-76
2022/07/25 05:05:08;;;;;;;7.35;4.82;;;;;;;;;;5043714;28;22283;-75
2022/07/25 05:07:34;;;;;;;8.40;5.22;;;;;;;;;;5037930;28;20087;-75
2022/07/25 05:10:01;;;;;;;6.10;5.40;;;;;;;;;;5047056;28;20432;-74
2022/07/25 05:12:27;;;;;;;8.35;4.50;;;;;;;;;;5044797;28;20030;-74
2022/07/25 05:14:53;;;;;;;8.13;6.30;;;;;;;;;;5039362;28;20036;-76
2022/07/25 05:17:20;;;;;;;7.95;5.70;;;;;;;;;;5045043;28;20093;-77
2022/07/25 05:19:46;;;;;;;7.53;4.80;;;;;;;;;;5045018;28;20517;-75
2022/07/25 05:22:12;;;;;;;6.30;5.53;;;;;;;;;;5055647;28;20472;-74
2022/07/25 05:24:38;;;;;;;13.57;5.30;;;;;;;;;;5051152;28;20032;-74
2022/07/25 05:27:05;;;;;;;8.18;5.13;;;;;;;;;;5045286;28;20583;-75
2022/07/25 05:29:31;;;;;;;6.15;5.13;;;;;;;;;;5048979;28;20495;-71
2022/07/25 05:31:57;;;;;;;8.82;5.20;;;;;;;;;;5040036;28;20029;-74
2022/07/25 05:34:23;;;;;;;7.28;5.20;;;22.30;99.90;;;;;;5048307;28;20139;-72
2022/07/25 05:36:49;;;;;;;7.40;5.07;;;;;;;;;;5049725;28;20500;-73
2022/07/25 05:39:15;;;;;;;8.82;6.13;;;;;;;;;;5048899;28;20088;-72
2022/07/25 05:41:41;;;;;;;6.95;5.15;;;;;;;;;;5048460;28;20043;-73
2022/07/25 05:44:07;;;;;;;7.45;5.47;;;;;;;;;;5049685;28;20044;-77
2022/07/25 05:46:33;;;;;;;7.38;5.72;;;;;;;;;;5023847;28;20446;-72
2022/07/25 05:48:59;;;;;;;12.00;6.45;;;;;;;;;;5046293;28;20463;-73
2022/07/25 05:51:25;;;;;;;6.85;5.78;;;;;;;;;;5050118;28;20033;-74
2022/07/25 05:53:51;;;;;;;6.70;5.47;;;;;;;;;;5037493;28;20140;-73
2022/07/25 05:56:17;;;;;;;6.45;5.78;;;;;;;;;;5029582;28;20037;-72
2022/07/25 05:58:43;;;;;;;8.43;5.75;;;;;;;;;;5045875;28;20432;-72
2022/07/25 06:01:13;;;;;;;6.78;6.15;;;22.80;99.90;;;;;;5048950;28;20041;-76
2022/07/25 06:03:39;;;;;;;6.65;5.68;;;22.90;99.90;;;;;;5049646;28;20064;-73
2022/07/25 06:06:07;;;;;;;7.90;5.55;;;;;;;;;;5047342;28;20489;-72
2022/07/25 06:08:33;;;;;;;6.95;5.78;;;;;;;;;;5046408;28;20029;-71
2022/07/25 06:10:59;;;;;;;10.63;6.03;;;23.10;99.90;;;;;;5048982;28;20028;-73
2022/07/25 06:13:26;;;;;;;7.97;5.60;;;;;;;;;;5045802;28;20121;-73
2022/07/25 06:15:52;;;;;;;11.00;6.65;;;;;;;;;;5051172;28;20036;-76
2022/07/25 06:18:18;;;;;;;11.27;6.07;;;;;;;;;;5051604;28;20037;-74
2022/07/25 06:20:44;;;;;;;6.28;5.55;;;;;;;;;;5036180;28;20029;-74
2022/07/25 06:23:10;;;;;;;7.72;6.80;;;;;;;;;;5045493;28;20091;-72
2022/07/25 06:25:36;;;;;;;11.57;6.57;;;;;;;;;;5046065;28;20021;-72
2022/07/25 06:28:02;;;;;;;6.80;5.65;;;;;;;;;;5038001;28;20037;-74
2022/07/25 06:30:28;;;;;;;11.68;6.47;;;;;;;;;;5051535;28;20474;-73
2022/07/25 06:32:54;;;;;;;8.98;6.50;;;23.70;99.90;;;;;;5053075;28;20032;-74
2022/07/25 06:35:20;;;;;;;11.77;6.20;;;;;;;;;;5043817;28;20057;-73
2022/07/25 06:37:46;;;;;;;11.48;7.18;;;;;;;;;;5047919;28;20029;-73
2022/07/25 06:40:12;;;;;;;12.07;7.20;;;23.80;99.90;;;;;;5053474;28;20048;-72
2022/07/25 06:42:42;;;;;;;7.55;6.50;;;;;;;;;;5034174;28;20037;-73
2022/07/25 06:45:09;;;;;;;9.98;6.57;;;;;;;;;;5050479;28;20044;-72
2022/07/25 06:47:36;;;;;;;10.50;7.00;;;;;;;;;;5050429;28;20021;-72
2022/07/25 06:50:03;;;;;;;10.38;6.78;;;24.70;99.90;;;;;;5049865;28;20037;-72
2022/07/25 06:52:29;;;;;;;9.05;7.63;;;;;;;;;;5048902;28;20021;-73
2022/07/25 06:54:54;;;;;;;7.95;6.93;;;;;;;;;;5047222;28;20051;-73
2022/07/25 06:57:20;;;;;;;8.70;7.40;;;;;;;;;;5051883;28;20025;-73
2022/07/25 06:59:46;;;;;;;11.63;7.78;;;24.60;99.90;;;;;;5050176;28;20207;-72
2022/07/25 07:02:12;;;;;;;9.27;7.35;;;24.80;99.90;;;;;;5046549;28;20472;-74
2022/07/25 07:04:38;;;;;;;10.70;7.22;;;;;;;;;;5052081;28;20079;-73
2022/07/25 07:07:04;;;;;;;10.48;6.65;;;;;;;;;;5037432;28;20025;-73
2022/07/25 07:09:30;;;;;;;8.77;6.32;;;;;;;;;;5048459;28;20033;-70
2022/07/25 07:11:56;;;;;;;8.95;5.93;;;;;;;;;;5049731;28;20037;-70
2022/07/25 07:14:22;;;;;;;7.10;5.28;;;;;;;;;;5049998;28;20099;-71
2022/07/25 07:16:49;;;;;;;9.10;5.35;;;;;;;;;;5052416;28;20116;-71
2022/07/25 07:19:15;;;;;;;4.80;4.20;;;;;;;;;;5046297;28;20306;-71
2022/07/25 07:21:41;;;;;;;6.63;4.82;;;25.10;99.90;;;;;;5035949;28;20535;-77
2022/07/25 07:24:08;;;;;;;11.25;4.70;;;;;;;;;;5057528;28;20069;-73
2022/07/25 07:26:34;;;;;;;9.50;4.53;;;;;;;;;;5052865;28;20040;-71
2022/07/25 07:29:01;;;;;;;4.95;3.50;;;;;;;;;;5050535;28;20029;-76
2022/07/25 07:31:28;;;;;;;12.18;3.92;;;;;;;;;;5041307;28;20079;-74
2022/07/25 07:33:54;;;;;;;7.32;3.50;;;;;;;;;;5029894;28;20077;-76
2022/07/25 07:36:20;;;;;;;6.13;3.50;;;;;;;;;;5030874;28;20025;-73
2022/07/25 07:38:47;;;;;;;8.35;3.15;;;;;;;;;;5019216;28;20373;-72
2022/07/25 07:41:13;;;;;;;4.28;2.90;;;;;;;;;;5049742;28;20025;-75
2022/07/25 07:43:39;;;;;;;6.88;4.45;;;;;;;;;;5051352;28;20087;-73
2022/07/25 07:46:05;;;;;;;3.05;2.03;;;;;;;;;;5048264;28;20059;-73
2022/07/25 07:48:32;;;;;;;5.72;1.60;;;;;;;;;;5045355;28;20041;-74
2022/07/25 07:50:58;;;;;;;2.50;1.40;;;;;;;;;;5044532;28;20032;-73
2022/07/25 07:55:42;;;;;;;2.97;1.40;;;;;;;;;;5050958;28;20049;-73
2022/07/25 07:56:12;;;;;;;3.28;1.30;;;;;;;;;;5051442;28;20512;-73
2022/07/25 07:58:38;;;;;;;1.75;1.35;;;;;;;;;;5043717;28;20025;-73
2022/07/25 08:01:04;;;;;;;7.10;1.27;;;;;;;;;;5050194;28;20040;-73
2022/07/25 08:03:32;;;;;;;2.90;1.30;;;26.40;99.20;;;;;;5051207;28;20517;-73
2022/07/25 08:05:58;;;;;;;2.00;1.33;;;;;;;;;;5050588;28;20037;-73
2022/07/25 08:08:24;;;;;;;3.97;1.73;;;;;;;;;;5048546;28;20087;-73
2022/07/25 08:10:51;;;;;;;5.97;1.70;;;;;;;;;;5048717;28;20079;-77
2022/07/25 08:13:17;;;;;;;2.17;1.52;;;25.20;99.90;;;;;;5050373;28;20039;-73
2022/07/25 08:15:45;;;;;;;3.20;1.20;;;;;;;;;;5046852;28;20109;-73
2022/07/25 08:18:11;;;;;;;1.27;1.00;;;;;;;;;;5041420;28;20453;-73
2022/07/25 08:20:37;;;;;;;3.08;2.50;;;;;;;;;;5047856;28;20457;-75
2022/07/25 08:23:03;;;;;;;21.95;16.38;;;;;;;;;;5045056;28;20123;-71
2022/07/25 08:25:31;;;;;;;3.65;1.55;;;;;;;;;;5044013;28;20481;-78
2022/07/25 08:27:58;;;;;;;4.25;2.30;;;;;;;;;;5046908;28;20409;-73
2022/07/25 08:30:25;;;;;;;1.52;1.42;;;;;;;;;;5045525;28;20451;-74
2022/07/25 08:32:53;;;;;;;2.22;1.20;;;;;;;;;;5046830;28;20124;-73
2022/07/25 08:35:19;;;;;;;2.75;1.55;;;;;;;;;;5051473;28;20098;-72
2022/07/25 08:37:46;;;;;;;10.48;1.90;;;24.10;99.90;;;;;;5041902;28;20104;-73
2022/07/25 08:40:13;;;;;;;1.67;1.30;;;;;;;;;;5047393;28;20020;-74
2022/07/25 08:42:40;;;;;;;4.93;1.10;;;;;;;;;;5048345;28;20108;-72
2022/07/25 08:45:07;;;;;;;6.28;1.67;;;;;;;;;;5049286;28;20053;-72
2022/07/25 08:47:34;;;;;;;3.67;1.15;;;;;;;;;;5036990;28;20056;-72
2022/07/25 08:50:02;;;;;;;4.68;1.42;;;;;;;;;;5046285;28;20103;-73
2022/07/25 08:52:28;;;;;;;2.97;0.85;;;;;;;;;;5047673;28;20068;-73
2022/07/25 08:54:54;;;;;;;6.13;1.17;;;;;;;;;;5046666;28;20037;-73
2022/07/25 08:57:20;;;;;;;3.92;1.45;;;;;;;;;;5047742;28;20040;-73
2022/07/25 08:59:46;;;;;;;3.90;1.50;;;;;;;;;;5047154;28;20035;-73
2022/07/25 09:02:13;;;;;;;3.30;1.73;;;23.60;99.90;;;;;;5048083;28;20041;-75
2022/07/25 09:04:39;;;;;;;6.38;1.52;;;;;;;;;;5048723;28;20036;-73
2022/07/25 09:07:06;;;;;;;6.63;1.70;;;;;;;;;;5044986;28;20051;-73
2022/07/25 09:09:37;;;;;;;2.42;1.48;;;;;;;;;;5043996;28;20029;-74
2022/07/25 09:12:04;;;;;;;4.03;1.63;;;;;;;;;;5044336;28;20036;-74
2022/07/25 09:14:30;;;;;;;2.78;1.48;;;;;;;;;;5041440;28;20389;-74
2022/07/25 09:16:56;;;;;;;3.78;1.38;;;;;;;;;;5039049;28;20035;-73
2022/07/25 09:19:23;;;;;;;3.63;1.30;;;;;;;;;;5050407;28;20040;-73
2022/07/25 09:22:00;;;;;;;6.50;1.63;;;;;;;;;;5043142;28;20029;-73
2022/07/25 09:24:26;;;;;;;3.17;1.35;;;;;;;;;;5043122;28;20504;-72
2022/07/25 09:26:53;;;;;;;6.70;1.60;;;;;;;;;;5047215;28;20381;-72
2022/07/25 09:29:27;;;;;;;2.22;1.30;;;;;;;;;;5051504;28;20389;-72
2022/07/25 09:31:54;;;;;;;2.45;1.33;;;24.30;99.90;;;;;;5048183;28;20036;-75
2022/07/25 09:34:36;;;;;;;3.85;1.38;;;;;;;;;;5039221;28;20061;-73
2022/07/25 09:37:07;;;;;;;7.00;1.27;;;24.10;99.90;;;;;;5045760;28;20029;-74
2022/07/25 09:39:52;;;;;;;2.92;1.17;;;;;;;;;;5042870;28;20047;-73
2022/07/25 09:42:27;;;;;;;13.40;7.53;;;23.80;99.90;;;;;;5038098;28;20044;-74
2022/07/25 09:45:11;;;;;;;4.15;2.50;;;23.90;99.90;;;;;;5030028;28;20389;-73
2022/07/25 09:47:49;;;;;;;6.32;1.42;;;;;;;;;;5037426;28;20056;-72
2022/07/25 09:50:15;;;;;;;4.80;1.33;;;;;;;;;;5051022;28;20117;-75
2022/07/25 09:52:42;;;;;;;5.85;1.55;;;;;;;;;;5048316;28;20451;-73
2022/07/25 09:55:09;;;;;;;13.98;1.75;;;23.60;99.90;;;;;;5013810;28;20076;-74
2022/07/25 09:57:35;;;;;;;8.07;2.40;;;;;;;;;;5045125;28;20383;-74
2022/07/25 10:00:02;;;;;;;7.03;1.80;;;;;;;;;;5050418;28;20033;-74
2022/07/25 10:02:38;;;;;;;9.52;2.20;;;;;;;;;;5050780;28;20052;-74
2022/07/25 10:05:14;;;;;;;6.85;1.70;;;;;;;;;;5043537;28;20032;-76
2022/07/25 10:07:47;;;;;;;4.57;1.95;;;;;;;;;;5038771;28;20072;-75
2022/07/25 10:10:27;;;;;;;7.18;2.15;;;24.20;99.90;;;;;;5046745;28;20037;-74
2022/07/25 10:13:01;;;;;;;8.10;1.75;;;;;;;;;;5051700;28;20060;-77
2022/07/25 10:15:37;;;;;;;9.40;1.92;;;23.90;99.90;;;;;;5047032;28;20396;-73
2022/07/25 10:18:07;;;;;;;9.88;1.70;;;;;;;;;;5046008;28;20033;-73
2022/07/25 10:20:33;;;;;;;5.53;1.55;;;;;;;;;;5029544;28;20029;-73
2022/07/25 10:22:59;;;;;;;7.10;2.28;;;;;;;;;;5047548;28;20035;-74
2022/07/25 10:25:25;;;;;;;8.15;1.83;;;24.20;99.90;;;;;;5047309;28;20029;-74
2022/07/25 10:27:58;;;;;;;14.32;2.47;;;;;;;;;;5043701;28;20112;-73
2022/07/25 10:30:34;;;;;;;5.22;1.50;;;24.10;99.90;;;;;;5045194;28;20035;-74
2022/07/25 10:33:05;;;;;;;5.68;1.80;;;;;;;;;;5039418;28;20039;-73
2022/07/25 10:35:31;;;;;;;8.67;1.90;;;;;;;;;;5042584;28;20084;-74
2022/07/25 10:37:58;;;;;;;6.35;1.88;;;;;;;;;;5049802;28;20337;-74
2022/07/25 10:40:25;;;;;;;5.15;1.70;;;;;;;;;;5050560;28;20377;-74
2022/07/25 10:42:56;;;;;;;8.93;2.00;;;24.80;99.90;;;;;;5046181;28;20033;-73
2022/07/25 10:45:26;;;;;;;4.43;1.40;;;;;;;;;;5045560;28;20060;-74
2022/07/25 10:47:55;;;;;;;11.27;1.63;;;;;;;;;;5044510;28;20029;-74
2022/07/25 10:50:22;;;;;;;5.72;2.00;;;;;;;;;;5044352;28;20472;-73
2022/07/25 10:52:58;;;;;;;5.70;1.60;;;;;;;;;;5044991;28;20111;-73
2022/07/25 10:55:24;;;;;;;8.88;2.20;;;;;;;;;;5046703;28;20531;-75
2022/07/25 10:58:02;;;;;;;10.05;2.10;;;;;;;;;;5049876;28;20112;-73
2022/07/25 11:00:29;;;;;;;9.65;1.80;;;;;;;;;;5050181;28;20033;-72
2022/07/25 11:02:56;;;;;;;7.57;2.13;;;;;;;;;;5052167;28;20036;-73
2022/07/25 11:05:22;;;;;;;7.30;1.90;;;;;;;;;;5052424;28;20029;-73
2022/07/25 11:07:51;;;;;;;9.18;2.08;;;;;;;;;;5051070;28;20135;-74
2022/07/25 11:10:24;;;;;;;13.15;2.42;;;;;;;;;;5016996;28;20437;-72
2022/07/25 11:12:50;;;;;;;11.50;2.13;;;;;;;;;;5033068;28;20021;-73
2022/07/25 11:15:20;;;;;;;6.35;2.53;;;;;;;;;;5051768;28;20040;-72
2022/07/25 11:17:51;;;;;;;9.48;2.47;;;;;;;;;;5050190;28;20044;-73
2022/07/25 11:20:18;;;;;;;7.07;1.83;;;24.10;99.90;;;;;;5060167;28;20021;-72
2022/07/25 11:22:50;;;;;;;6.15;1.35;;;;;;;;;;5053882;28;20029;-72
2022/07/25 11:25:18;;;;;;;9.55;2.25;;;;;;;;;;5049023;28;20044;-72
2022/07/25 11:27:44;;;;;;;7.13;1.85;;;25.10;99.90;;;;;;5033008;28;20040;-72
2022/07/25 11:30:18;;;;;;;5.15;1.10;;;25.10;99.90;;;;;;5053516;28;20025;-72
2022/07/25 11:32:57;;;;;;;10.88;1.88;;;;;;;;;;5050830;28;20104;-73
2022/07/25 11:35:24;;;;;;;10.00;2.38;;;;;;;;;;5053773;28;20048;-73
2022/07/25 11:37:51;;;;;;;6.88;1.73;;;;;;;;;;5049253;28;20036;-72
2022/07/25 11:40:17;;;;;;;5.93;1.45;;;;;;;;;;5053835;28;20087;-73
2022/07/25 11:42:45;;;;;;;6.90;1.88;;;;;;;;;;5034744;28;20036;-72
2022/07/25 11:45:23;;;;;;;9.32;1.60;;;25.00;99.90;;;;;;5052195;28;20068;-72
2022/07/25 11:48:06;;;;;;;7.70;1.50;;;24.80;99.90;;;;;;5042845;28;20078;-72
2022/07/25 11:50:33;;;;;;;6.80;1.70;;;24.90;99.90;;;;;;5050337;28;20025;-72
2022/07/25 11:53:00;;;;;;;5.68;1.42;;;;;;;;;;5052620;28;20069;-73
2022/07/25 11:55:29;;;;;;;4.32;1.45;;;;;;;;;;5053517;28;20056;-72
2022/07/25 11:57:58;;;;;;;6.30;1.52;;;25.00;99.90;;;;;;5052535;28;20052;-73
2022/07/25 12:00:24;;;;;;;13.02;1.88;;;;;;;;;;5036171;28;20034;-73
2022/07/25 12:02:50;;;;;;;6.55;1.90;;;;;;;;;;5052919;28;20028;-73
2022/07/25 12:05:19;;;;;;;8.35;1.98;;;25.40;99.90;;;;;;5053126;28;20029;-73
2022/07/25 12:07:47;;;;;;;6.97;1.77;;;;;;;;;;5027112;28;20033;-72
2022/07/25 12:10:14;;;;;;;4.18;1.40;;;;;;;;;;5052870;28;20590;-72
2022/07/25 12:12:51;;;;;;;7.63;1.40;;;25.50;99.90;;;;;;5051313;28;20389;-72
2022/07/25 12:15:19;;;;;;;6.93;2.10;;;;;;;;;;5029549;28;20053;-72
2022/07/25 12:17:45;;;;;;;5.43;1.35;;;;;;;;;;5047080;28;20052;-72
2022/07/25 12:20:25;;;;;;;8.48;1.38;;;25.20;99.90;;;;;;5049073;28;20120;-72
2022/07/25 12:22:54;;;;;;;6.80;1.40;;;25.60;99.90;;;;;;5048004;28;20025;-72
2022/07/25 12:25:21;;;;;;;7.45;1.30;;;;;;;;;;5049679;28;20036;-72
2022/07/25 12:27:47;;;;;;;9.90;1.80;;;;;;;;;;5052005;28;20036;-72
2022/07/25 12:30:13;;;;;;;6.57;1.67;;;;;;;;;;5050433;28;20018;-72
2022/07/25 12:32:39;;;;;;;6.00;1.55;;;;;;;;;;5029936;28;20392;-73
2022/07/25 12:35:06;;;;;;;7.07;1.63;;;;;;;;;;5039015;28;20053;-72
2022/07/25 12:37:32;;;;;;;8.80;1.95;;;;;;;;;;5032600;28;20029;-73
2022/07/25 12:40:00;;;;;;;6.15;1.75;;;;;;;;;;5032459;28;20045;-72
2022/07/25 12:42:30;;;;;;;5.25;1.52;;;;;;;;;;5025967;28;20030;-73
2022/07/25 12:44:56;;;;;;;9.07;1.77;;;;;;;;;;5012745;28;20034;-72
2022/07/25 12:47:23;;;;;;;8.80;1.75;;;24.40;99.90;;;;;;5021584;28;20120;-72
2022/07/25 12:49:49;;;;;;;8.43;1.40;;;;;;;;;;5022217;28;20109;-73
2022/07/25 12:52:15;;;;;;;6.10;1.80;;;;;;;;;;5019036;28;20084;-72
2022/07/25 12:54:41;;;;;;;12.10;1.80;;;25.00;99.90;;;;;;5029918;28;20052;-72
2022/07/25 12:57:07;;;;;;;6.38;1.95;;;;;;;;;;5030418;28;20061;-72
2022/07/25 12:59:33;;;;;;;8.82;1.55;;;;;;;;;;5007658;28;20108;-72
2022/07/25 13:01:59;;;;;;;9.48;2.05;;;;;;;;;;5014471;28;20549;-73
2022/07/25 13:04:25;;;;;;;7.13;1.67;;;;;;;;;;5030637;28;20092;-74
2022/07/25 13:06:55;;;;;;;8.50;2.10;;;;;;;;;;5021914;28;20540;-74
2022/07/25 13:09:21;;;;;;;6.20;1.67;;;;;;;;;;5015653;28;20037;-72
2022/07/25 13:11:47;;;;;;;8.85;1.95;;;;;;;;;;5024899;28;20821;-73
2022/07/25 13:14:14;;;;;;;7.03;2.10;;;;;;;;;;5025507;28;20037;-71
2022/07/25 13:16:41;;;;;;;11.15;2.30;;;;;;;;;;5026909;28;20025;-70
2022/07/25 13:19:07;;;;;;;8.73;2.22;;;;;;;;;;5029405;28;20048;-71
2022/07/25 13:21:33;;;;;;;8.95;2.10;;;;;;;;;;5030380;28;20037;-71
2022/07/25 13:23:59;;;;;;;10.52;2.45;;;;;;;;;;5022311;28;20029;-71
2022/07/25 13:26:25;;;;;;;11.07;2.83;;;;;;;;;;5026235;28;20473;-71
2022/07/25 13:28:51;;;;;;;8.50;2.50;;;;;;;;;;5030486;28;20108;-71
2022/07/25 13:31:19;;;;;;;10.88;2.05;;;;;;;;;;5024329;28;20033;-70
2022/07/25 13:33:45;;;;;;;8.57;2.45;;;;;;;;;;5025902;28;20056;-71
2022/07/25 13:36:11;;;;;;;7.80;1.75;;;;;;;;;;5040311;28;20033;-71
2022/07/25 13:38:40;;;;;;;16.48;2.97;;;;;;;;;;5037578;28;20041;-72
2022/07/25 13:41:06;;;;;;;10.63;5.50;;;;;;;;;;5042840;28;20063;-71
2022/07/25 13:43:32;;;;;;;10.00;4.88;;;;;;;;;;5047707;28;20115;-72
2022/07/25 13:45:58;;;;;;;8.05;2.83;;;;;;;;;;5041883;28;20028;-72
2022/07/25 13:48:24;;;;;;;10.30;1.77;;;25.00;99.70;;;;;;5042215;28;20504;-71
2022/07/25 13:50:51;;;;;;;6.82;2.00;;;;;;;;;;5046148;28;20428;-72
2022/07/25 13:53:18;;;;;;;6.05;1.92;;;;;;;;;;5044683;28;20072;-72
2022/07/25 13:55:44;;;;;;;9.40;1.42;;;;;;;;;;5047059;28;20140;-71
2022/07/25 13:58:10;;;;;;;11.48;3.15;;;;;;;;;;5040197;28;20501;-72
2022/07/25 14:00:36;;;;;;;8.23;1.92;;;;;;;;;;5048017;28;20029;-72
2022/07/25 14:03:02;;;;;;;6.70;2.00;;;;;;;;;;5046886;28;20389;-71
2022/07/25 14:05:28;;;;;;;10.52;2.08;;;;;;;;;;5046540;28;20021;-72
2022/07/25 14:07:54;;;;;;;7.72;2.10;;;;;;;;;;5034096;28;20389;-72
2022/07/25 14:10:20;;;;;;;9.82;1.58;;;;;;;;;;5042996;28;20038;-72
2022/07/25 14:12:46;;;;;;;11.55;3.90;;;;;;;;;;5038457;28;20087;-73
2022/07/25 14:15:12;;;;;;;13.77;5.18;;;;;;;;;;5046465;28;20111;-72
2022/07/25 14:17:38;;;;;;;10.48;1.85;;;;;;;;;;5046688;28;20037;-70
2022/07/25 14:20:05;;;;;;;6.32;2.00;;;;;;;;;;5036640;28;20053;-71
2022/07/25 14:22:31;;;;;;;9.30;2.00;;;;;;;;;;5048002;28;20040;-71